createdAt,value
2017-04-15T00:00:00.251Z,11.67
2017-04-15T00:01:00.644Z,11.67
2017-04-15T00:02:00.616Z,11.67
2017-04-15T00:03:00.353Z,11.59
2017-04-15T00:04:00.396Z,11.65
2017-04-15T00:05:00.727Z,11.64
2017-04-15T00:06:00.466Z,11.65
2017-04-15T00:07:00.802Z,11.61
2017-04-15T00:08:00.533Z,11.68
2017-04-15T00:09:00.887Z,11.64
2017-04-15T00:10:00.907Z,11.62
2017-04-15T00:11:00.643Z,11.61
2017-04-15T00:12:00.679Z,11.61
2017-04-15T00:13:00.716Z,11.61
2017-04-15T00:14:01.057Z,11.56
2017-04-15T00:15:00.791Z,11.57
2017-04-15T00:16:00.823Z,11.61
2017-04-15T00:17:00.868Z,11.49
2017-04-15T00:18:01.202Z,11.54
2017-04-15T00:19:01.236Z,11.64
2017-04-15T00:20:01.278Z,11.59
2017-04-15T00:21:01.007Z,11.52
2017-04-15T00:22:01.045Z,11.46
2017-04-15T00:23:01.379Z,11.5
2017-04-15T00:24:01.164Z,11.59
2017-04-15T00:25:01.758Z,11.5
2017-04-15T00:26:01.187Z,11.53
2017-04-15T00:27:01.223Z,11.56
2017-04-15T00:28:01.563Z,11.49
2017-04-15T00:29:01.597Z,11.52
2017-04-15T00:30:01.633Z,11.59
2017-04-15T00:31:01.369Z,11.43
2017-04-15T00:32:01.720Z,11.47
2017-04-15T00:33:01.745Z,11.44
2017-04-15T00:34:01.780Z,11.54
2017-04-15T00:35:01.514Z,11.44
2017-04-15T00:36:01.853Z,11.53
2017-04-15T00:37:01.893Z,11.47
2017-04-15T00:38:02.228Z,11.49
2017-04-15T00:39:02.265Z,11.44
2017-04-15T00:40:01.697Z,11.49
2017-04-15T00:41:01.732Z,11.64
2017-04-15T00:42:02.073Z,11.49
2017-04-15T00:43:02.115Z,11.43
2017-04-15T00:44:02.142Z,11.47
2017-04-15T00:45:01.878Z,11.49
2017-04-15T00:46:02.523Z,11.5
2017-04-15T00:47:01.951Z,11.46
2017-04-15T00:48:02.285Z,11.44
2017-04-15T00:49:02.629Z,11.43
2017-04-15T00:50:02.135Z,11.49
2017-04-15T00:51:02.091Z,11.46
2017-04-15T00:52:02.126Z,11.46
2017-04-15T00:53:02.472Z,11.43
2017-04-15T00:54:02.504Z,11.44
2017-04-15T00:55:02.237Z,11.44
2017-04-15T00:56:02.268Z,11.43
2017-04-15T00:57:02.309Z,11.44
2017-04-15T00:58:02.646Z,11.47
2017-04-15T00:59:02.687Z,11.47
2017-04-15T01:00:03.024Z,11.43
2017-04-15T01:01:02.454Z,11.47
2017-04-15T01:02:02.491Z,11.46
2017-04-15T01:03:02.827Z,11.41
2017-04-15T01:04:02.864Z,11.38
2017-04-15T01:05:02.899Z,11.47
2017-04-15T01:06:02.944Z,11.46
2017-04-15T01:07:02.672Z,11.47
2017-04-15T01:08:02.708Z,11.39
2017-04-15T01:09:02.744Z,11.39
2017-04-15T01:10:02.777Z,11.47
2017-04-15T01:11:02.814Z,11.41
2017-04-15T01:12:02.850Z,11.46
2017-04-15T01:13:03.192Z,11.43
2017-04-15T01:14:03.226Z,11.5
2017-04-15T01:15:03.265Z,11.44
2017-04-15T01:16:02.996Z,11.35
2017-04-15T01:17:03.336Z,11.44
2017-04-15T01:18:03.377Z,11.34
2017-04-15T01:19:03.112Z,11.38
2017-04-15T01:20:03.442Z,11.36
2017-04-15T01:21:03.180Z,11.34
2017-04-15T01:22:03.511Z,11.32
2017-04-15T01:23:03.250Z,11.36
2017-04-15T01:24:03.611Z,11.39
2017-04-15T01:25:03.626Z,11.39
2017-04-15T01:26:03.829Z,11.32
2017-04-15T01:27:03.698Z,11.44
2017-04-15T01:28:03.732Z,11.34
2017-04-15T01:29:03.466Z,11.32
2017-04-15T01:30:03.801Z,11.46
2017-04-15T01:31:03.541Z,11.41
2017-04-15T01:32:03.573Z,11.43
2017-04-15T01:33:04.223Z,11.35
2017-04-15T01:34:03.647Z,11.32
2017-04-15T01:35:03.988Z,11.39
2017-04-15T01:36:03.728Z,11.36
2017-04-15T01:37:04.363Z,11.43
2017-04-15T01:38:04.396Z,11.34
2017-04-15T01:39:04.434Z,11.29
2017-04-15T01:40:04.165Z,11.31
2017-04-15T01:41:03.903Z,11.29
2017-04-15T01:42:04.248Z,11.29
2017-04-15T01:43:04.577Z,11.38
2017-04-15T01:44:04.616Z,11.28
2017-04-15T01:45:04.358Z,11.31
2017-04-15T01:46:04.686Z,11.35
2017-04-15T01:47:04.119Z,11.31
2017-04-15T01:48:04.455Z,11.35
2017-04-15T01:49:04.491Z,11.31
2017-04-15T01:50:04.527Z,11.21
2017-04-15T01:51:04.262Z,11.34
2017-04-15T01:52:04.295Z,11.31
2017-04-15T01:53:04.354Z,11.29
2017-04-15T01:54:04.369Z,11.31
2017-04-15T01:55:04.707Z,11.21
2017-04-15T01:56:05.043Z,11.32
2017-04-15T01:57:04.483Z,11.32
2017-04-15T01:58:04.515Z,11.31
2017-04-15T01:59:04.547Z,11.32
2017-04-15T02:00:04.896Z,11.31
2017-04-15T02:01:04.622Z,11.31
2017-04-15T02:02:04.659Z,11.28
2017-04-15T02:03:04.893Z,11.28
2017-04-15T02:04:05.033Z,11.28
2017-04-15T02:05:04.762Z,11.27
2017-04-15T02:06:04.802Z,11.19
2017-04-15T02:07:05.139Z,11.28
2017-04-15T02:08:05.173Z,11.24
2017-04-15T02:09:04.912Z,11.24
2017-04-15T02:10:05.256Z,11.13
2017-04-15T02:11:04.990Z,11.17
2017-04-15T02:12:05.627Z,11.17
2017-04-15T02:13:05.055Z,11.11
2017-04-15T02:14:05.089Z,11.16
2017-04-15T02:15:05.127Z,11.17
2017-04-15T02:16:05.466Z,11.11
2017-04-15T02:17:05.501Z,11.16
2017-04-15T02:18:05.238Z,11.17
2017-04-15T02:19:05.572Z,11.16
2017-04-15T02:20:05.311Z,11.17
2017-04-15T02:21:05.642Z,11.19
2017-04-15T02:22:05.389Z,11.19
2017-04-15T02:23:05.716Z,11.17
2017-04-15T02:24:05.448Z,11.07
2017-04-15T02:25:05.493Z,11.09
2017-04-15T02:26:05.522Z,11.09
2017-04-15T02:27:05.862Z,11.13
2017-04-15T02:28:05.896Z,11.11
2017-04-15T02:29:05.633Z,11.14
2017-04-15T02:30:05.664Z,11.2
2017-04-15T02:31:06.005Z,11.14
2017-04-15T02:32:05.748Z,11.07
2017-04-15T02:33:05.774Z,11.11
2017-04-15T02:34:06.115Z,11.07
2017-04-15T02:35:05.848Z,11.1
2017-04-15T02:36:06.183Z,11.13
2017-04-15T02:37:05.922Z,11.09
2017-04-15T02:38:05.955Z,11.06
2017-04-15T02:39:06.289Z,11.03
2017-04-15T02:40:06.340Z,11.06
2017-04-15T02:41:06.666Z,11.09
2017-04-15T02:42:06.098Z,11.09
2017-04-15T02:43:06.142Z,11.09
2017-04-15T02:44:06.178Z,11.1
2017-04-15T02:45:06.217Z,11.09
2017-04-15T02:46:06.240Z,11.11
2017-04-15T02:47:06.289Z,11.11
2017-04-15T02:48:06.620Z,11.07
2017-04-15T02:49:06.661Z,11.1
2017-04-15T02:50:06.687Z,11.14
2017-04-15T02:51:06.419Z,11.11
2017-04-15T02:52:07.060Z,11.13
2017-04-15T02:53:06.797Z,11.09
2017-04-15T02:54:06.528Z,11.11
2017-04-15T02:55:06.875Z,11.1
2017-04-15T02:56:06.905Z,11.07
2017-04-15T02:57:06.640Z,11.09
2017-04-15T02:58:06.674Z,11.13
2017-04-15T02:59:06.709Z,11.11
2017-04-15T03:00:07.348Z,11.09
2017-04-15T03:01:07.083Z,11.11
2017-04-15T03:02:06.815Z,11.07
2017-04-15T03:03:06.849Z,11.07
2017-04-15T03:04:07.196Z,11.07
2017-04-15T03:05:06.930Z,11.13
2017-04-15T03:06:06.964Z,11.11
2017-04-15T03:07:07.607Z,10.99
2017-04-15T03:08:07.337Z,11.09
2017-04-15T03:09:07.374Z,11.06
2017-04-15T03:10:07.410Z,11.03
2017-04-15T03:11:07.154Z,11.02
2017-04-15T03:12:07.176Z,10.99
2017-04-15T03:13:07.517Z,11.01
2017-04-15T03:14:07.853Z,11.02
2017-04-15T03:15:07.589Z,11.02
2017-04-15T03:16:07.623Z,10.98
2017-04-15T03:17:07.666Z,11.03
2017-04-15T03:18:07.700Z,11.01
2017-04-15T03:19:07.730Z,10.99
2017-04-15T03:20:07.461Z,11.03
2017-04-15T03:21:07.502Z,11.07
2017-04-15T03:22:07.535Z,10.98
2017-04-15T03:23:07.876Z,11.03
2017-04-15T03:24:07.910Z,10.96
2017-04-15T03:25:07.949Z,11.02
2017-04-15T03:26:07.679Z,11.01
2017-04-15T03:27:08.017Z,11.06
2017-04-15T03:28:08.049Z,11.07
2017-04-15T03:29:08.398Z,10.98
2017-04-15T03:30:08.124Z,11.09
2017-04-15T03:31:07.857Z,11.03
2017-04-15T03:32:07.894Z,11.07
2017-04-15T03:33:08.362Z,11.02
2017-04-15T03:34:08.570Z,11.03
2017-04-15T03:35:08.319Z,11.02
2017-04-15T03:36:08.645Z,10.89
2017-04-15T03:37:08.073Z,11.01
2017-04-15T03:38:08.109Z,11.02
2017-04-15T03:39:08.451Z,10.98
2017-04-15T03:40:08.495Z,11.01
2017-04-15T03:41:08.529Z,11.01
2017-04-15T03:42:08.253Z,10.94
2017-04-15T03:43:08.603Z,10.96
2017-04-15T03:44:08.627Z,11.02
2017-04-15T03:45:08.361Z,10.96
2017-04-15T03:46:08.706Z,10.94
2017-04-15T03:47:08.741Z,10.95
2017-04-15T03:48:08.478Z,10.89
2017-04-15T03:49:08.811Z,10.92
2017-04-15T03:50:08.546Z,10.95
2017-04-15T03:51:08.878Z,10.88
2017-04-15T03:52:08.612Z,10.88
2017-04-15T03:53:08.659Z,10.86
2017-04-15T03:54:08.687Z,10.94
2017-04-15T03:55:08.724Z,10.89
2017-04-15T03:56:08.761Z,10.92
2017-04-15T03:57:08.792Z,10.92
2017-04-15T03:58:09.129Z,10.91
2017-04-15T03:59:09.162Z,10.96
2017-04-15T04:00:08.906Z,10.96
2017-04-15T04:01:08.933Z,10.91
2017-04-15T04:02:08.968Z,10.86
2017-04-15T04:03:09.613Z,10.94
2017-04-15T04:04:09.354Z,10.84
2017-04-15T04:05:09.082Z,10.88
2017-04-15T04:06:09.716Z,10.98
2017-04-15T04:07:09.456Z,10.84
2017-04-15T04:08:09.575Z,10.98
2017-04-15T04:09:09.527Z,10.94
2017-04-15T04:10:09.556Z,10.88
2017-04-15T04:11:09.598Z,10.89
2017-04-15T04:12:09.638Z,10.89
2017-04-15T04:13:09.971Z,10.91
2017-04-15T04:14:09.400Z,10.84
2017-04-15T04:15:09.736Z,10.83
2017-04-15T04:16:09.472Z,10.83
2017-04-15T04:17:09.642Z,10.83
2017-04-15T04:18:09.848Z,10.92
2017-04-15T04:19:09.884Z,10.94
2017-04-15T04:20:09.920Z,10.96
2017-04-15T04:21:09.950Z,10.91
2017-04-15T04:22:09.687Z,10.83
2017-04-15T04:23:10.025Z,11.01
2017-04-15T04:24:10.058Z,10.88
2017-04-15T04:25:10.099Z,10.86
2017-04-15T04:26:10.067Z,10.84
2017-04-15T04:27:10.168Z,10.91
2017-04-15T04:28:10.203Z,11.02
2017-04-15T04:29:10.243Z,10.92
2017-04-15T04:30:09.973Z,10.89
2017-04-15T04:31:10.317Z,10.89
2017-04-15T04:32:10.345Z,10.89
2017-04-15T04:33:10.405Z,10.89
2017-04-15T04:34:10.418Z,10.86
2017-04-15T04:35:10.152Z,10.95
2017-04-15T04:36:10.188Z,10.88
2017-04-15T04:37:10.525Z,10.88
2017-04-15T04:38:10.570Z,10.92
2017-04-15T04:39:10.612Z,10.92
2017-04-15T04:40:10.648Z,11.01
2017-04-15T04:41:10.365Z,10.95
2017-04-15T04:42:10.714Z,10.98
2017-04-15T04:43:10.443Z,10.98
2017-04-15T04:44:10.777Z,10.95
2017-04-15T04:45:10.510Z,10.95
2017-04-15T04:46:10.546Z,10.98
2017-04-15T04:47:10.590Z,10.96
2017-04-15T04:48:10.623Z,11.07
2017-04-15T04:49:10.655Z,10.99
2017-04-15T04:50:10.687Z,11.1
2017-04-15T04:51:11.029Z,11.01
2017-04-15T04:52:11.063Z,11.03
2017-04-15T04:53:10.797Z,11.01
2017-04-15T04:54:10.834Z,10.99
2017-04-15T04:55:10.880Z,11.07
2017-04-15T04:56:11.516Z,11.06
2017-04-15T04:57:10.945Z,11.02
2017-04-15T04:58:11.280Z,11.07
2017-04-15T04:59:11.317Z,11.02
2017-04-15T05:00:11.370Z,10.98
2017-04-15T05:01:11.423Z,11.01
2017-04-15T05:02:11.131Z,11.03
2017-04-15T05:03:11.460Z,11.03
2017-04-15T05:04:11.497Z,10.95
2017-04-15T05:05:11.531Z,11.01
2017-04-15T05:06:11.269Z,10.96
2017-04-15T05:07:11.601Z,10.99
2017-04-15T05:08:11.639Z,10.94
2017-04-15T05:09:11.675Z,10.99
2017-04-15T05:10:11.636Z,10.95
2017-04-15T05:11:11.747Z,10.91
2017-04-15T05:12:11.783Z,10.98
2017-04-15T05:13:12.125Z,11.02
2017-04-15T05:14:11.863Z,10.88
2017-04-15T05:15:11.588Z,11.01
2017-04-15T05:16:11.927Z,10.99
2017-04-15T05:17:11.960Z,10.96
2017-04-15T05:18:12.002Z,10.96
2017-04-15T05:19:11.729Z,10.96
2017-04-15T05:20:11.769Z,10.89
2017-04-15T05:21:12.105Z,10.95
2017-04-15T05:22:12.144Z,10.95
2017-04-15T05:23:11.875Z,10.95
2017-04-15T05:24:12.531Z,11.01
2017-04-15T05:25:12.249Z,10.95
2017-04-15T05:26:11.981Z,11.06
2017-04-15T05:27:12.322Z,11.06
2017-04-15T05:28:12.363Z,10.94
2017-04-15T05:29:12.395Z,11.03
2017-04-15T05:30:12.122Z,11.07
2017-04-15T05:31:12.463Z,11.09
2017-04-15T05:32:12.515Z,11.11
2017-04-15T05:33:12.538Z,11.11
2017-04-15T05:34:12.580Z,11.24
2017-04-15T05:35:12.306Z,11.31
2017-04-15T05:36:12.339Z,11.34
2017-04-15T05:37:12.679Z,11.27
2017-04-15T05:38:12.415Z,11.28
2017-04-15T05:39:12.756Z,11.49
2017-04-15T05:40:12.798Z,11.39
2017-04-15T05:41:12.827Z,11.57
2017-04-15T05:42:12.559Z,11.59
2017-04-15T05:43:12.902Z,11.68
2017-04-15T05:44:13.238Z,11.68
2017-04-15T05:45:12.969Z,11.83
2017-04-15T05:46:13.007Z,11.87
2017-04-15T05:47:12.739Z,12.04
2017-04-15T05:48:12.780Z,12.06
2017-04-15T05:49:13.119Z,12.13
2017-04-15T05:50:12.921Z,12.27
2017-04-15T05:51:12.894Z,12.49
2017-04-15T05:52:12.927Z,12.62
2017-04-15T05:53:13.574Z,12.84
2017-04-15T05:54:13.002Z,12.95
2017-04-15T05:55:13.035Z,12.95
2017-04-15T05:56:13.402Z,12.97
2017-04-15T05:57:13.111Z,13.04
2017-04-15T05:58:13.757Z,12.92
2017-04-15T05:59:13.488Z,12.85
2017-04-15T06:00:13.528Z,12.74
2017-04-15T06:01:13.577Z,12.66
2017-04-15T06:02:13.901Z,12.52
2017-04-15T06:03:13.335Z,12.44
2017-04-15T06:04:13.981Z,12.46
2017-04-15T06:05:13.410Z,12.3
2017-04-15T06:06:13.658Z,12.27
2017-04-15T06:07:13.780Z,12.3
2017-04-15T06:08:14.125Z,12.29
2017-04-15T06:09:13.552Z,12.2
2017-04-15T06:10:13.590Z,12.23
2017-04-15T06:11:13.633Z,12.19
2017-04-15T06:12:13.668Z,12.23
2017-04-15T06:13:14.004Z,12.15
2017-04-15T06:14:14.041Z,12.19
2017-04-15T06:15:14.077Z,12.2
2017-04-15T06:16:14.416Z,12.19
2017-04-15T06:17:13.854Z,12.24
2017-04-15T06:18:14.190Z,12.21
2017-04-15T06:19:14.546Z,12.23
2017-04-15T06:20:14.265Z,12.26
2017-04-15T06:21:14.300Z,12.31
2017-04-15T06:22:14.033Z,12.38
2017-04-15T06:23:14.070Z,12.45
2017-04-15T06:24:14.425Z,12.48
2017-04-15T06:25:14.148Z,12.46
2017-04-15T06:26:14.483Z,12.52
2017-04-15T06:27:14.530Z,12.7
2017-04-15T06:28:14.267Z,12.74
2017-04-15T06:29:14.598Z,12.97
2017-04-15T06:30:14.330Z,13.14
2017-04-15T06:31:14.515Z,13.32
2017-04-15T06:32:14.405Z,13.56
2017-04-15T06:33:14.750Z,14.12
2017-04-15T06:34:15.088Z,14.65
2017-04-15T06:35:14.521Z,15.26
2017-04-15T06:36:14.557Z,15.94
2017-04-15T06:37:15.201Z,16.68
2017-04-15T06:38:14.940Z,17.22
2017-04-15T06:39:14.678Z,17.76
2017-04-15T06:40:14.726Z,18.17
2017-04-15T06:41:14.754Z,18.47
2017-04-15T06:42:14.799Z,18.72
2017-04-15T06:43:15.463Z,18.95
2017-04-15T06:44:15.177Z,19.01
2017-04-15T06:45:14.919Z,19.2
2017-04-15T06:46:14.959Z,19.28
2017-04-15T06:47:14.995Z,19.39
2017-04-15T06:48:15.646Z,19.51
2017-04-15T06:49:15.686Z,19.7
2017-04-15T06:50:15.122Z,19.91
2017-04-15T06:51:15.461Z,20.18
2017-04-15T06:52:15.201Z,20.47
2017-04-15T06:53:15.254Z,20.72
2017-04-15T06:54:15.589Z,20.9
2017-04-15T06:55:15.327Z,21.08
2017-04-15T06:56:15.372Z,21.23
2017-04-15T06:57:15.411Z,21.39
2017-04-15T06:58:16.060Z,21.35
2017-04-15T06:59:15.830Z,21.51
2017-04-15T07:00:15.536Z,21.46
2017-04-15T07:01:15.582Z,21.56
2017-04-15T07:02:15.923Z,21.64
2017-04-15T07:03:15.968Z,21.64
2017-04-15T07:04:16.011Z,21.74
2017-04-15T07:05:15.750Z,21.85
2017-04-15T07:06:15.792Z,21.98
2017-04-15T07:07:15.837Z,22.23
2017-04-15T07:08:16.182Z,22.31
2017-04-15T07:09:16.227Z,22.29
2017-04-15T07:10:15.967Z,22.38
2017-04-15T07:11:16.007Z,22.31
2017-04-15T07:12:16.060Z,22.37
2017-04-15T07:13:16.401Z,22.37
2017-04-15T07:14:16.440Z,22.32
2017-04-15T07:15:16.182Z,22.35
2017-04-15T07:16:16.225Z,22.31
2017-04-15T07:17:16.270Z,22.29
2017-04-15T07:18:16.382Z,22.28
2017-04-15T07:19:16.660Z,22.25
2017-04-15T07:20:16.397Z,22.14
2017-04-15T07:21:16.442Z,22.14
2017-04-15T07:22:16.526Z,22.01
2017-04-15T07:23:16.833Z,21.97
2017-04-15T07:24:16.876Z,21.92
2017-04-15T07:25:16.944Z,21.95
2017-04-15T07:26:17.412Z,21.98
2017-04-15T07:27:17.008Z,22.07
2017-04-15T07:28:16.744Z,22.02
2017-04-15T07:29:17.093Z,22.12
2017-04-15T07:30:16.835Z,22.16
2017-04-15T07:31:16.877Z,22.12
2017-04-15T07:32:16.923Z,22.2
2017-04-15T07:33:17.270Z,22.35
2017-04-15T07:34:17.484Z,22.53
2017-04-15T07:35:17.060Z,22.77
2017-04-15T07:36:17.096Z,23.07
2017-04-15T07:37:17.143Z,23.09
2017-04-15T07:38:17.484Z,23.15
2017-04-15T07:39:17.534Z,23.23
2017-04-15T07:40:17.272Z,23.2
2017-04-15T07:41:17.319Z,23.17
2017-04-15T07:42:17.361Z,23.12
2017-04-15T07:43:17.708Z,23.02
2017-04-15T07:44:17.754Z,23.22
2017-04-15T07:45:17.492Z,23.11
2017-04-15T07:46:17.544Z,22.8
2017-04-15T07:47:17.586Z,22.6
2017-04-15T07:48:17.636Z,22.31
2017-04-15T07:49:17.678Z,22.16
2017-04-15T07:50:17.714Z,21.91
2017-04-15T07:51:17.762Z,21.79
2017-04-15T07:52:18.104Z,21.45
2017-04-15T07:53:17.850Z,21.23
2017-04-15T07:54:17.894Z,21.11
2017-04-15T07:55:17.934Z,20.96
2017-04-15T07:56:17.979Z,20.89
2017-04-15T07:57:18.024Z,20.81
2017-04-15T07:58:18.067Z,20.89
2017-04-15T07:59:18.712Z,20.93
2017-04-15T08:00:18.759Z,20.91
2017-04-15T08:01:18.194Z,20.79
2017-04-15T08:02:18.235Z,20.61
2017-04-15T08:03:18.913Z,20.27
2017-04-15T08:04:18.635Z,19.91
2017-04-15T08:05:18.670Z,19.68
2017-04-15T08:06:18.710Z,19.39
2017-04-15T08:07:18.454Z,19.23
2017-04-15T08:08:18.799Z,19.06
2017-04-15T08:09:18.845Z,18.98
2017-04-15T08:10:18.880Z,19.18
2017-04-15T08:11:18.924Z,19.23
2017-04-15T08:12:18.663Z,19.38
2017-04-15T08:13:19.025Z,19.48
2017-04-15T08:14:19.051Z,19.36
2017-04-15T08:15:18.790Z,19.61
2017-04-15T08:16:19.153Z,19.83
2017-04-15T08:17:19.176Z,19.78
2017-04-15T08:18:19.523Z,19.88
2017-04-15T08:19:19.575Z,20.21
2017-04-15T08:20:19.004Z,20.59
2017-04-15T08:21:19.049Z,20.95
2017-04-15T08:22:19.094Z,21.14
2017-04-15T08:23:19.465Z,21.35
2017-04-15T08:24:19.487Z,21.64
2017-04-15T08:25:19.532Z,21.9
2017-04-15T08:26:19.869Z,22.17
2017-04-15T08:27:19.309Z,22.28
2017-04-15T08:28:19.966Z,22.46
2017-04-15T08:29:19.707Z,22.54
2017-04-15T08:30:19.448Z,22.62
2017-04-15T08:31:19.811Z,22.67
2017-04-15T08:32:19.837Z,22.77
2017-04-15T08:33:20.185Z,22.93
2017-04-15T08:34:19.623Z,23.09
2017-04-15T08:35:19.676Z,23.24
2017-04-15T08:36:20.018Z,23.35
2017-04-15T08:37:19.761Z,23.45
2017-04-15T08:38:20.115Z,23.65
2017-04-15T08:39:20.158Z,23.94
2017-04-15T08:40:20.504Z,24.24
2017-04-15T08:41:20.249Z,24.47
2017-04-15T08:42:20.291Z,24.53
2017-04-15T08:43:20.643Z,24.57
2017-04-15T08:44:20.387Z,24.49
2017-04-15T08:45:20.134Z,24.35
2017-04-15T08:46:20.400Z,24.07
2017-04-15T08:47:20.536Z,23.77
2017-04-15T08:48:20.274Z,23.52
2017-04-15T08:49:20.317Z,23.24
2017-04-15T08:50:20.361Z,23.07
2017-04-15T08:51:20.406Z,22.74
2017-04-15T08:52:20.761Z,22.54
2017-04-15T08:53:20.803Z,22.34
2017-04-15T08:54:21.147Z,21.99
2017-04-15T08:55:20.589Z,21.74
2017-04-15T08:56:20.633Z,21.64
2017-04-15T08:57:20.983Z,21.32
2017-04-15T08:58:21.038Z,21.06
2017-04-15T08:59:20.768Z,20.74
2017-04-15T09:00:21.115Z,20.53
2017-04-15T09:01:20.856Z,20.31
2017-04-15T09:02:21.205Z,20.05
2017-04-15T09:03:21.244Z,19.93
2017-04-15T09:04:21.285Z,19.68
2017-04-15T09:05:21.032Z,19.6
2017-04-15T09:06:21.375Z,19.35
2017-04-15T09:07:21.121Z,19.17
2017-04-15T09:08:21.458Z,18.95
2017-04-15T09:09:21.504Z,18.86
2017-04-15T09:10:21.547Z,18.68
2017-04-15T09:11:21.591Z,18.64
2017-04-15T09:12:21.632Z,18.5
2017-04-15T09:13:21.671Z,18.43
2017-04-15T09:14:21.741Z,18.37
2017-04-15T09:15:21.755Z,18.4
2017-04-15T09:16:21.798Z,18.39
2017-04-15T09:17:21.534Z,18.33
2017-04-15T09:18:21.579Z,18.34
2017-04-15T09:19:22.229Z,18.37
2017-04-15T09:20:21.963Z,18.28
2017-04-15T09:21:21.713Z,18.13
2017-04-15T09:22:22.057Z,18.07
2017-04-15T09:23:21.785Z,18.04
2017-04-15T09:24:22.130Z,17.88
2017-04-15T09:25:22.175Z,17.67
2017-04-15T09:26:21.918Z,17.5
2017-04-15T09:27:21.948Z,17.35
2017-04-15T09:28:22.294Z,17.33
2017-04-15T09:29:22.035Z,17.1
2017-04-15T09:30:22.378Z,17.07
2017-04-15T09:31:22.118Z,16.95
2017-04-15T09:32:22.163Z,16.73
2017-04-15T09:33:22.504Z,16.62
2017-04-15T09:34:22.543Z,16.52
2017-04-15T09:35:22.583Z,16.33
2017-04-15T09:36:22.317Z,16.41
2017-04-15T09:37:22.658Z,16.18
2017-04-15T09:38:22.397Z,16.22
2017-04-15T09:39:22.742Z,16.09
2017-04-15T09:40:22.779Z,16
2017-04-15T09:41:22.522Z,15.89
2017-04-15T09:42:22.554Z,15.94
2017-04-15T09:43:22.614Z,15.88
2017-04-15T09:44:22.644Z,15.86
2017-04-15T09:45:22.984Z,15.82
2017-04-15T09:46:22.716Z,15.74
2017-04-15T09:47:22.755Z,15.81
2017-04-15T09:48:22.948Z,15.6
2017-04-15T09:49:23.138Z,15.57
2017-04-15T09:50:22.872Z,15.51
2017-04-15T09:51:22.913Z,15.56
2017-04-15T09:52:23.275Z,15.51
2017-04-15T09:53:22.996Z,15.52
2017-04-15T09:54:23.333Z,15.48
2017-04-15T09:55:23.371Z,15.51
2017-04-15T09:56:23.124Z,15.42
2017-04-15T09:57:23.454Z,15.49
2017-04-15T09:58:23.495Z,15.6
2017-04-15T09:59:23.536Z,15.72
2017-04-15T10:00:23.573Z,15.82
2017-04-15T10:01:23.610Z,15.88
2017-04-15T10:02:23.956Z,15.94
2017-04-15T10:03:23.700Z,16.11
2017-04-15T10:04:23.425Z,16.23
2017-04-15T10:05:24.071Z,16.31
2017-04-15T10:06:24.112Z,16.42
2017-04-15T10:07:23.853Z,16.55
2017-04-15T10:08:23.902Z,16.59
2017-04-15T10:09:23.629Z,16.56
2017-04-15T10:10:23.669Z,16.58
2017-04-15T10:11:23.706Z,16.58
2017-04-15T10:12:23.746Z,16.55
2017-04-15T10:13:23.791Z,16.56
2017-04-15T10:14:24.138Z,16.45
2017-04-15T10:15:24.169Z,16.52
2017-04-15T10:16:23.915Z,16.44
2017-04-15T10:17:23.953Z,16.56
2017-04-15T10:18:23.999Z,16.38
2017-04-15T10:19:24.045Z,16.35
2017-04-15T10:20:24.075Z,16.31
2017-04-15T10:21:24.119Z,16.26
2017-04-15T10:22:24.803Z,16.27
2017-04-15T10:23:24.200Z,16.22
2017-04-15T10:24:24.543Z,16.11
2017-04-15T10:25:24.278Z,16.22
2017-04-15T10:26:24.623Z,16.16
2017-04-15T10:27:24.694Z,16.33
2017-04-15T10:28:24.396Z,16.38
2017-04-15T10:29:24.741Z,16.4
2017-04-15T10:30:24.779Z,16.37
2017-04-15T10:31:24.819Z,16.5
2017-04-15T10:32:24.561Z,16.55
2017-04-15T10:33:24.600Z,16.49
2017-04-15T10:34:25.264Z,16.37
2017-04-15T10:35:24.678Z,16.45
2017-04-15T10:36:24.720Z,16.5
2017-04-15T10:37:25.365Z,16.52
2017-04-15T10:38:25.415Z,16.52
2017-04-15T10:39:25.455Z,16.49
2017-04-15T10:40:25.184Z,16.42
2017-04-15T10:41:25.225Z,16.55
2017-04-15T10:42:25.275Z,16.52
2017-04-15T10:43:25.006Z,16.55
2017-04-15T10:44:25.350Z,16.52
2017-04-15T10:45:25.092Z,16.59
2017-04-15T10:46:25.139Z,16.65
2017-04-15T10:47:25.168Z,16.71
2017-04-15T10:48:25.514Z,16.83
2017-04-15T10:49:25.250Z,16.77
2017-04-15T10:50:25.294Z,16.78
2017-04-15T10:51:25.336Z,16.85
2017-04-15T10:52:25.678Z,16.81
2017-04-15T10:53:25.722Z,16.86
2017-04-15T10:54:25.458Z,16.8
2017-04-15T10:55:25.807Z,16.73
2017-04-15T10:56:25.844Z,16.65
2017-04-15T10:57:25.888Z,16.53
2017-04-15T10:58:26.227Z,16.52
2017-04-15T10:59:25.966Z,16.4
2017-04-15T11:00:25.700Z,16.37
2017-04-15T11:01:26.052Z,16.26
2017-04-15T11:02:25.785Z,16.22
2017-04-15T11:03:25.828Z,16.14
2017-04-15T11:04:26.171Z,16.03
2017-04-15T11:05:25.908Z,16
2017-04-15T11:06:25.943Z,15.96
2017-04-15T11:07:26.288Z,15.93
2017-04-15T11:08:26.032Z,15.96
2017-04-15T11:09:26.372Z,15.99
2017-04-15T11:10:26.104Z,16
2017-04-15T11:11:26.692Z,16
2017-04-15T11:12:26.488Z,16.09
2017-04-15T11:13:26.528Z,16.2
2017-04-15T11:14:26.263Z,16.15
2017-04-15T11:15:26.309Z,16.15
2017-04-15T11:16:26.346Z,16.26
2017-04-15T11:17:26.695Z,16.25
2017-04-15T11:18:27.034Z,16.25
2017-04-15T11:19:27.074Z,16.26
2017-04-15T11:20:26.812Z,16.38
2017-04-15T11:21:26.545Z,16.37
2017-04-15T11:22:26.589Z,16.34
2017-04-15T11:23:26.943Z,16.4
2017-04-15T11:24:26.677Z,16.45
2017-04-15T11:25:27.013Z,16.48
2017-04-15T11:26:27.055Z,16.6
2017-04-15T11:27:26.805Z,16.6
2017-04-15T11:28:27.434Z,16.55
2017-04-15T11:29:27.477Z,16.56
2017-04-15T11:30:26.912Z,16.55
2017-04-15T11:31:26.961Z,16.55
2017-04-15T11:32:27.000Z,16.5
2017-04-15T11:33:27.031Z,16.48
2017-04-15T11:34:27.072Z,16.59
2017-04-15T11:35:27.414Z,16.63
2017-04-15T11:36:27.152Z,16.71
2017-04-15T11:37:27.494Z,16.75
2017-04-15T11:38:27.540Z,16.7
2017-04-15T11:39:27.573Z,16.74
2017-04-15T11:40:27.317Z,16.65
2017-04-15T11:41:27.354Z,16.63
2017-04-15T11:42:27.395Z,16.52
2017-04-15T11:43:27.741Z,16.45
2017-04-15T11:44:28.097Z,16.35
2017-04-15T11:45:27.518Z,16.25
2017-04-15T11:46:27.556Z,16.15
2017-04-15T11:47:27.795Z,16.2
2017-04-15T11:48:27.639Z,16.09
2017-04-15T11:49:28.283Z,16.01
2017-04-15T11:50:27.718Z,16.06
2017-04-15T11:51:27.753Z,15.99
2017-04-15T11:52:27.800Z,16.03
2017-04-15T11:53:27.856Z,15.93
2017-04-15T11:54:28.173Z,16.03
2017-04-15T11:55:27.919Z,16.03
2017-04-15T11:56:28.585Z,16.01
2017-04-15T11:57:28.302Z,16.03
2017-04-15T11:58:28.034Z,16.14
2017-04-15T11:59:28.687Z,15.99
2017-04-15T12:00:28.416Z,15.99
2017-04-15T12:01:28.336Z,16.04
2017-04-15T12:02:28.799Z,15.93
2017-04-15T12:03:28.534Z,15.92
2017-04-15T12:04:28.271Z,16.04
2017-04-15T12:05:28.919Z,16.06
2017-04-15T12:06:28.352Z,15.93
2017-04-15T12:07:28.398Z,15.94
2017-04-15T12:08:28.735Z,15.88
2017-04-15T12:09:28.469Z,15.93
2017-04-15T12:10:28.513Z,15.96
2017-04-15T12:11:28.860Z,15.89
2017-04-15T12:12:28.589Z,15.94
2017-04-15T12:13:28.632Z,15.88
2017-04-15T12:14:28.977Z,15.85
2017-04-15T12:15:28.706Z,15.76
2017-04-15T12:16:29.055Z,15.74
2017-04-15T12:17:28.784Z,15.76
2017-04-15T12:18:29.432Z,15.6
2017-04-15T12:19:28.866Z,15.6
2017-04-15T12:20:29.208Z,15.63
2017-04-15T12:21:29.243Z,15.6
2017-04-15T12:22:28.984Z,15.57
2017-04-15T12:23:29.026Z,15.49
2017-04-15T12:24:29.059Z,15.39
2017-04-15T12:25:29.098Z,15.26
2017-04-15T12:26:29.143Z,15.23
2017-04-15T12:27:29.176Z,15.12
2017-04-15T12:28:29.219Z,15.05
2017-04-15T12:29:29.866Z,15.03
2017-04-15T12:30:29.599Z,15.01
2017-04-15T12:31:29.638Z,14.93
2017-04-15T12:32:29.371Z,14.95
2017-04-15T12:33:29.716Z,14.91
2017-04-15T12:34:29.759Z,14.9
2017-04-15T12:35:29.795Z,14.88
2017-04-15T12:36:29.537Z,14.83
2017-04-15T12:37:29.566Z,14.84
2017-04-15T12:38:29.942Z,14.87
2017-04-15T12:39:29.645Z,14.78
2017-04-15T12:40:29.693Z,14.72
2017-04-15T12:41:30.027Z,14.78
2017-04-15T12:42:29.763Z,14.8
2017-04-15T12:43:30.517Z,14.72
2017-04-15T12:44:29.839Z,14.78
2017-04-15T12:45:29.883Z,14.78
2017-04-15T12:46:30.215Z,14.71
2017-04-15T12:47:29.951Z,14.72
2017-04-15T12:48:30.597Z,14.74
2017-04-15T12:49:30.029Z,14.75
2017-04-15T12:50:30.066Z,14.83
2017-04-15T12:51:30.232Z,14.71
2017-04-15T12:52:30.447Z,14.69
2017-04-15T12:53:30.183Z,14.71
2017-04-15T12:54:30.528Z,14.71